createdAt,value
2018-01-24T00:00:13.461Z,15.40
2018-01-24T00:01:13.440Z,15.40
2018-01-24T00:02:13.416Z,16.20
2018-01-24T00:03:13.399Z,16.10
2018-01-24T00:04:13.378Z,15.40
2018-01-24T00:05:13.360Z,13.50
2018-01-24T00:06:13.346Z,15.20
2018-01-24T00:07:13.320Z,16.50
2018-01-24T00:08:13.302Z,16.70
2018-01-24T00:09:13.281Z,15.20
2018-01-24T00:10:13.314Z,15.50
2018-01-24T00:11:13.243Z,15.60
2018-01-24T00:12:13.231Z,16.10
2018-01-24T00:13:13.214Z,15.10
2018-01-24T00:14:13.188Z,17.80
2018-01-24T00:15:13.173Z,15.20
2018-01-24T00:16:13.151Z,15.00
2018-01-24T00:17:13.143Z,16.10
2018-01-24T00:18:13.112Z,14.40
2018-01-24T00:19:13.090Z,18.20
2018-01-24T00:20:13.071Z,17.30
2018-01-24T00:21:13.060Z,17.90
2018-01-24T00:22:13.033Z,17.40
2018-01-24T00:23:13.016Z,16.00
2018-01-24T00:24:13.001Z,17.30
2018-01-24T00:25:12.974Z,18.10
2018-01-24T00:26:12.961Z,18.20
2018-01-24T00:27:12.936Z,17.60
2018-01-24T00:28:12.920Z,18.50
2018-01-24T00:29:12.904Z,18.90
2018-01-24T00:30:12.879Z,17.60
2018-01-24T00:31:12.859Z,16.20
2018-01-24T00:32:12.854Z,16.00
2018-01-24T00:33:12.826Z,15.10
2018-01-24T00:34:12.810Z,16.40
2018-01-24T00:35:12.787Z,18.60
2018-01-24T00:36:12.764Z,19.10
2018-01-24T00:37:12.748Z,17.80
2018-01-24T00:38:12.730Z,19.00
2018-01-24T00:39:12.709Z,17.40
2018-01-24T00:40:12.689Z,17.50
2018-01-24T00:41:12.669Z,19.40
2018-01-24T00:42:12.653Z,20.10
2018-01-24T00:43:12.639Z,20.00
2018-01-24T00:44:12.611Z,19.80
2018-01-24T00:45:12.594Z,18.80
2018-01-24T00:46:12.573Z,17.00
2018-01-24T00:47:12.566Z,18.10
2018-01-24T00:48:12.538Z,18.40
2018-01-24T00:49:12.520Z,16.00
2018-01-24T00:50:12.498Z,17.50
2018-01-24T00:51:12.478Z,18.70
2018-01-24T00:52:12.467Z,19.30
2018-01-24T00:53:12.442Z,18.40
2018-01-24T00:54:12.428Z,20.20
2018-01-24T00:55:12.405Z,18.50
2018-01-24T00:56:12.383Z,18.40
2018-01-24T00:57:12.363Z,18.80
2018-01-24T00:58:12.349Z,17.40
2018-01-24T00:59:12.328Z,15.50
2018-01-24T01:00:12.559Z,17.30
2018-01-24T01:01:12.288Z,17.80
2018-01-24T01:02:12.268Z,17.10
2018-01-24T01:03:12.254Z,17.40
2018-01-24T01:04:12.241Z,16.90
2018-01-24T01:05:12.211Z,16.60
2018-01-24T01:06:12.201Z,16.80
2018-01-24T01:07:12.177Z,17.40
2018-01-24T01:08:12.157Z,17.30
2018-01-24T01:09:12.139Z,17.50
2018-01-24T01:10:12.121Z,17.00
2018-01-24T01:11:12.100Z,14.00
2018-01-24T01:12:12.088Z,16.30
2018-01-24T01:13:12.062Z,16.70
2018-01-24T01:14:12.043Z,17.00
2018-01-24T01:15:12.023Z,15.70
2018-01-24T01:16:12.011Z,16.10
2018-01-24T01:17:11.990Z,16.60
2018-01-24T01:18:11.970Z,16.10
2018-01-24T01:19:11.949Z,17.70
2018-01-24T01:20:11.929Z,18.10
2018-01-24T01:21:11.913Z,16.90
2018-01-24T01:22:11.898Z,17.50
2018-01-24T01:23:11.877Z,18.00
2018-01-24T01:24:11.862Z,16.60
2018-01-24T01:25:11.836Z,17.90
2018-01-24T01:26:11.818Z,17.20
2018-01-24T01:27:11.800Z,17.00
2018-01-24T01:28:11.785Z,17.30
2018-01-24T01:29:11.770Z,17.80
2018-01-24T01:30:11.753Z,18.20
2018-01-24T01:31:11.728Z,16.70
2018-01-24T01:32:11.707Z,15.60
2018-01-24T01:33:11.684Z,17.30
2018-01-24T01:34:11.667Z,17.40
2018-01-24T01:35:11.665Z,17.30
2018-01-24T01:36:11.636Z,17.60
2018-01-24T01:37:11.609Z,18.10
2018-01-24T01:38:11.593Z,17.80
2018-01-24T01:39:11.576Z,17.70
2018-01-24T01:40:11.559Z,18.40
2018-01-24T01:41:11.533Z,19.20
2018-01-24T01:42:11.520Z,19.00
2018-01-24T01:43:11.500Z,19.10
2018-01-24T01:44:11.481Z,18.90
2018-01-24T01:45:11.461Z,18.80
2018-01-24T01:46:11.444Z,18.90
2018-01-24T01:47:11.433Z,18.90
2018-01-24T01:48:11.407Z,18.40
2018-01-24T01:49:11.390Z,18.90
2018-01-24T01:50:11.370Z,19.10
2018-01-24T01:51:11.355Z,19.80
2018-01-24T01:52:11.338Z,18.30
2018-01-24T01:53:11.330Z,18.20
2018-01-24T01:54:11.298Z,19.00
2018-01-24T01:55:11.278Z,19.10
2018-01-24T01:56:11.257Z,17.50
2018-01-24T01:57:11.244Z,15.90
2018-01-24T01:58:11.229Z,18.60
2018-01-24T01:59:11.206Z,17.40
2018-01-24T02:00:11.189Z,18.20
2018-01-24T02:01:11.167Z,18.00
2018-01-24T02:02:11.147Z,18.00
2018-01-24T02:03:11.131Z,14.20
2018-01-24T02:04:11.119Z,17.10
2018-01-24T02:05:11.092Z,17.50
2018-01-24T02:06:11.072Z,14.90
2018-01-24T02:07:11.056Z,16.10
2018-01-24T02:08:11.040Z,17.40
2018-01-24T02:09:11.019Z,18.30
2018-01-24T02:10:11.000Z,19.20
2018-01-24T02:11:10.982Z,18.90
2018-01-24T02:12:10.962Z,19.00
2018-01-24T02:13:10.948Z,17.80
2018-01-24T02:14:10.926Z,18.30
2018-01-24T02:15:10.907Z,17.90
2018-01-24T02:16:10.890Z,18.20
2018-01-24T02:17:10.872Z,17.70
2018-01-24T02:18:10.852Z,17.80
2018-01-24T02:19:10.839Z,17.80
2018-01-24T02:20:10.824Z,17.40
2018-01-24T02:21:10.813Z,17.70
2018-01-24T02:22:10.779Z,17.00
2018-01-24T02:23:10.763Z,17.70
2018-01-24T02:24:10.750Z,17.90
2018-01-24T02:25:10.728Z,15.70
2018-01-24T02:26:10.708Z,16.50
2018-01-24T02:27:10.689Z,16.10
2018-01-24T02:28:10.680Z,16.30
2018-01-24T02:29:10.660Z,16.30
2018-01-24T02:30:10.638Z,17.20
2018-01-24T02:31:10.618Z,15.80
2018-01-24T02:32:10.600Z,15.90
2018-01-24T02:33:10.586Z,16.40
2018-01-24T02:34:10.571Z,15.90
2018-01-24T02:35:10.545Z,16.20
2018-01-24T02:36:10.527Z,16.50
2018-01-24T02:37:10.506Z,17.00
2018-01-24T02:38:10.494Z,16.30
2018-01-24T02:39:10.479Z,16.20
2018-01-24T02:40:10.460Z,15.40
2018-01-24T02:41:10.437Z,15.20
2018-01-24T02:42:10.417Z,14.50
2018-01-24T02:43:10.409Z,15.00
2018-01-24T02:44:10.382Z,15.50
2018-01-24T02:45:10.369Z,16.10
2018-01-24T02:46:10.348Z,15.70
2018-01-24T02:47:10.329Z,15.20
2018-01-24T02:48:10.311Z,15.30
2018-01-24T02:49:10.299Z,14.80
2018-01-24T02:50:10.275Z,15.30
2018-01-24T02:51:10.257Z,14.90
2018-01-24T02:52:10.252Z,14.80
2018-01-24T02:53:10.220Z,14.80
2018-01-24T02:54:10.202Z,14.90
2018-01-24T02:55:10.189Z,15.30
2018-01-24T02:56:10.173Z,15.50
2018-01-24T02:57:10.156Z,13.60
2018-01-24T02:58:10.133Z,16.60
2018-01-24T02:59:10.120Z,17.20
2018-01-24T03:00:10.098Z,15.60
2018-01-24T03:01:10.089Z,15.10
2018-01-24T03:02:10.062Z,15.90
2018-01-24T03:03:10.045Z,15.70
2018-01-24T03:04:10.029Z,15.60
2018-01-24T03:05:10.007Z,14.50
2018-01-24T03:06:09.992Z,16.70
2018-01-24T03:07:09.976Z,16.00
2018-01-24T03:08:09.956Z,16.60
2018-01-24T03:09:09.937Z,15.20
2018-01-24T03:10:09.920Z,15.00
2018-01-24T03:11:09.900Z,16.20
2018-01-24T03:12:09.882Z,16.10
2018-01-24T03:13:09.868Z,16.10
2018-01-24T03:14:09.847Z,15.70
2018-01-24T03:15:09.834Z,15.30
2018-01-24T03:16:09.816Z,15.20
2018-01-24T03:17:09.794Z,15.60
2018-01-24T03:18:09.781Z,16.80
2018-01-24T03:19:09.759Z,16.40
2018-01-24T03:20:09.743Z,16.20
2018-01-24T03:21:09.725Z,16.60
2018-01-24T03:22:09.706Z,15.80
2018-01-24T03:23:09.699Z,15.40
2018-01-24T03:24:09.675Z,16.30
2018-01-24T03:25:09.655Z,15.40
2018-01-24T03:26:09.637Z,15.10
2018-01-24T03:27:09.620Z,16.00
2018-01-24T03:28:09.601Z,15.00
2018-01-24T03:29:09.584Z,15.40
2018-01-24T03:30:09.567Z,15.80
2018-01-24T03:31:09.552Z,14.90
2018-01-24T03:32:09.530Z,15.30
2018-01-24T03:33:09.514Z,15.10
2018-01-24T03:34:09.509Z,14.10
2018-01-24T03:35:09.481Z,15.30
2018-01-24T03:36:09.460Z,15.80
2018-01-24T03:37:09.441Z,15.50
2018-01-24T03:38:09.428Z,16.70
2018-01-24T03:39:09.444Z,15.20
2018-01-24T03:40:09.389Z,15.30
2018-01-24T03:41:09.369Z,14.10
2018-01-24T03:42:09.361Z,16.60
2018-01-24T03:43:09.342Z,16.40
2018-01-24T03:44:09.319Z,16.40
2018-01-24T03:45:09.299Z,16.40
2018-01-24T03:46:09.281Z,16.30
2018-01-24T03:47:09.266Z,15.70
2018-01-24T03:48:09.249Z,16.60
2018-01-24T03:49:09.229Z,15.50
2018-01-24T03:50:09.215Z,15.10
2018-01-24T03:51:09.197Z,15.30
2018-01-24T03:52:09.180Z,15.30
2018-01-24T03:53:09.160Z,17.50
2018-01-24T03:54:09.139Z,16.50
2018-01-24T03:55:09.128Z,16.40
2018-01-24T03:56:09.107Z,16.30
2018-01-24T03:57:09.091Z,15.40
2018-01-24T03:58:09.076Z,16.80
2018-01-24T03:59:09.056Z,15.90
2018-01-24T04:00:09.037Z,17.30
2018-01-24T04:01:09.019Z,17.10
2018-01-24T04:02:08.999Z,16.90
2018-01-24T04:03:08.988Z,17.60
2018-01-24T04:04:08.969Z,15.80
2018-01-24T04:05:08.950Z,17.60
2018-01-24T04:06:08.931Z,16.70
2018-01-24T04:07:08.911Z,16.60
2018-01-24T04:08:08.894Z,17.30
2018-01-24T04:09:08.880Z,16.40
2018-01-24T04:10:08.857Z,17.70
2018-01-24T04:11:08.848Z,17.80
2018-01-24T04:12:08.831Z,16.80
2018-01-24T04:13:08.805Z,17.60
2018-01-24T04:14:08.786Z,16.10
2018-01-24T04:15:08.779Z,15.60
2018-01-24T04:16:08.750Z,18.30
2018-01-24T04:17:08.859Z,16.60
2018-01-24T04:18:08.720Z,17.50
2018-01-24T04:19:08.842Z,16.80
2018-01-24T04:20:08.686Z,17.70
2018-01-24T04:21:08.761Z,16.90
2018-01-24T04:22:08.646Z,18.20
2018-01-24T04:23:08.878Z,16.40
2018-01-24T04:24:08.619Z,15.00
2018-01-24T04:25:08.599Z,16.30
2018-01-24T04:26:08.577Z,14.90
2018-01-24T04:27:08.559Z,15.90
2018-01-24T04:28:08.539Z,15.80
2018-01-24T04:29:08.521Z,15.40
2018-01-24T04:30:08.504Z,17.00
2018-01-24T04:31:08.490Z,14.20
2018-01-24T04:32:08.469Z,13.30
2018-01-24T04:33:08.450Z,15.20
2018-01-24T04:34:08.433Z,15.80
2018-01-24T04:35:08.416Z,15.90
2018-01-24T04:36:08.399Z,15.90
2018-01-24T04:37:08.379Z,14.60
2018-01-24T04:38:08.363Z,15.60
2018-01-24T04:39:08.357Z,15.90
2018-01-24T04:40:08.328Z,14.00
2018-01-24T04:41:08.309Z,15.10
2018-01-24T04:42:08.290Z,15.60
2018-01-24T04:43:08.280Z,15.40
2018-01-24T04:44:08.260Z,13.80
2018-01-24T04:45:08.242Z,15.30
2018-01-24T04:46:08.220Z,14.80
2018-01-24T04:47:08.203Z,14.30
2018-01-24T04:48:08.189Z,14.30
2018-01-24T04:49:08.170Z,15.30
2018-01-24T04:50:08.149Z,14.00
2018-01-24T04:51:08.133Z,14.40
2018-01-24T04:52:08.122Z,15.40
2018-01-24T04:53:08.101Z,15.40
2018-01-24T04:54:08.079Z,15.00
2018-01-24T04:55:08.059Z,15.70
2018-01-24T04:56:08.051Z,15.50
2018-01-24T04:57:08.029Z,15.70
2018-01-24T04:58:08.006Z,15.40
2018-01-24T04:59:07.998Z,16.00
2018-01-24T05:00:07.974Z,17.00
2018-01-24T05:01:07.954Z,13.90
2018-01-24T05:02:07.938Z,16.80
2018-01-24T05:03:07.925Z,15.70
2018-01-24T05:04:07.908Z,15.90
2018-01-24T05:05:07.888Z,16.00
2018-01-24T05:06:07.871Z,16.40
2018-01-24T05:07:07.848Z,16.00
2018-01-24T05:08:07.834Z,16.20
2018-01-24T05:09:07.813Z,15.70
2018-01-24T05:10:07.796Z,15.40
2018-01-24T05:11:07.783Z,15.90
2018-01-24T05:12:07.766Z,16.20
2018-01-24T05:13:07.793Z,15.60
2018-01-24T05:14:07.729Z,15.60
2018-01-24T05:15:07.777Z,16.00
2018-01-24T05:16:07.690Z,16.50
2018-01-24T05:17:07.828Z,12.70
2018-01-24T05:18:07.659Z,15.60
2018-01-24T05:19:07.712Z,16.70
2018-01-24T05:20:07.619Z,15.20
2018-01-24T05:21:07.703Z,17.00
2018-01-24T05:22:07.585Z,16.90
2018-01-24T05:23:07.626Z,16.40
2018-01-24T05:24:07.550Z,16.90
2018-01-24T05:25:07.568Z,16.80
2018-01-24T05:26:07.515Z,16.20
2018-01-24T05:27:07.582Z,16.00
2018-01-24T05:28:07.478Z,16.90
2018-01-24T05:29:07.536Z,17.20
2018-01-24T05:30:07.444Z,16.90
2018-01-24T05:31:07.574Z,17.00
2018-01-24T05:32:07.405Z,16.40
2018-01-24T05:33:07.468Z,15.70
2018-01-24T05:34:07.376Z,15.70
2018-01-24T05:35:07.420Z,14.80
2018-01-24T05:36:07.339Z,15.60
2018-01-24T05:37:07.420Z,13.80
2018-01-24T05:38:07.303Z,15.90
2018-01-24T05:39:07.287Z,15.10
2018-01-24T05:40:07.279Z,13.80
2018-01-24T05:41:07.275Z,15.20
2018-01-24T05:42:07.229Z,14.20
2018-01-24T05:43:07.326Z,14.60
2018-01-24T05:44:07.199Z,14.30
2018-01-24T05:45:07.225Z,13.40
2018-01-24T05:46:07.158Z,13.30
2018-01-24T05:47:07.204Z,15.00
2018-01-24T05:48:07.124Z,13.20
2018-01-24T05:49:07.107Z,13.50
2018-01-24T05:50:07.086Z,13.60
2018-01-24T05:51:07.073Z,13.10
2018-01-24T05:52:07.053Z,12.10
2018-01-24T05:53:07.034Z,11.80
2018-01-24T05:54:07.015Z,12.00
2018-01-24T05:55:07.003Z,11.30
2018-01-24T05:56:07.024Z,11.30
2018-01-24T05:57:06.962Z,11.20
2018-01-24T05:58:06.948Z,10.50
2018-01-24T05:59:06.925Z,11.30
2018-01-24T06:00:06.914Z,10.70
2018-01-24T06:01:06.890Z,11.00
2018-01-24T06:02:06.876Z,10.90
2018-01-24T06:03:06.856Z,9.90
2018-01-24T06:04:06.844Z,9.70
2018-01-24T06:05:06.821Z,9.40
2018-01-24T06:06:06.808Z,8.90
2018-01-24T06:07:06.787Z,9.00
2018-01-24T06:08:06.769Z,9.10
2018-01-24T06:09:06.749Z,8.60
2018-01-24T06:10:06.732Z,9.10
2018-01-24T06:11:06.719Z,7.80
2018-01-24T06:12:06.769Z,8.20
2018-01-24T06:13:06.678Z,8.10
2018-01-24T06:14:06.664Z,7.90
2018-01-24T06:15:06.650Z,7.30
2018-01-24T06:16:06.630Z,7.50
2018-01-24T06:17:06.610Z,7.10
2018-01-24T06:18:06.596Z,6.90
2018-01-24T06:19:06.581Z,6.70
2018-01-24T06:20:06.562Z,6.30
2018-01-24T06:21:06.789Z,6.10
2018-01-24T06:22:06.524Z,6.50
2018-01-24T06:23:06.503Z,6.00
2018-01-24T06:24:06.484Z,6.30
2018-01-24T06:25:06.469Z,5.90
2018-01-24T06:26:06.448Z,6.50
2018-01-24T06:27:06.433Z,5.60
2018-01-24T06:28:06.420Z,5.80
2018-01-24T06:29:06.398Z,5.60
2018-01-24T06:30:06.378Z,5.40
2018-01-24T06:31:06.364Z,5.10
2018-01-24T06:32:06.344Z,3.90
2018-01-24T06:33:06.327Z,4.20
2018-01-24T06:34:06.307Z,4.10
2018-01-24T06:35:06.291Z,4.40
2018-01-24T06:36:06.272Z,3.80
2018-01-24T06:37:06.254Z,3.80
2018-01-24T06:38:06.241Z,4.40
2018-01-24T06:39:06.225Z,4.10
2018-01-24T06:40:06.205Z,3.70
2018-01-24T06:41:06.234Z,3.90
2018-01-24T06:42:06.166Z,4.20
2018-01-24T06:43:06.162Z,3.80
2018-01-24T06:44:06.130Z,3.70
2018-01-24T06:45:06.124Z,3.70
2018-01-24T06:46:06.099Z,3.60
2018-01-24T06:47:06.153Z,4.00
2018-01-24T06:48:06.058Z,3.60
2018-01-24T06:49:06.043Z,3.30
2018-01-24T06:50:06.028Z,3.90
2018-01-24T06:51:06.011Z,4.00
2018-01-24T06:52:05.989Z,3.70
2018-01-24T06:53:05.973Z,3.60
2018-01-24T06:54:05.953Z,3.40
2018-01-24T06:55:05.937Z,3.80
2018-01-24T06:56:05.928Z,4.00
2018-01-24T06:57:05.897Z,3.60
2018-01-24T06:58:05.885Z,3.90
2018-01-24T06:59:05.922Z,4.00
2018-01-24T07:00:05.848Z,3.70
2018-01-24T07:01:05.834Z,3.60
2018-01-24T07:02:05.814Z,3.60
2018-01-24T07:03:05.802Z,3.80
2018-01-24T07:04:05.778Z,3.60
2018-01-24T07:05:05.758Z,4.00
2018-01-24T07:06:05.743Z,3.90
2018-01-24T07:07:05.729Z,3.80
2018-01-24T07:08:05.708Z,3.90
2018-01-24T07:09:05.691Z,3.50
2018-01-24T07:10:05.681Z,3.60
2018-01-24T07:11:05.658Z,3.60
2018-01-24T07:12:05.634Z,3.40
2018-01-24T07:13:05.620Z,3.00
2018-01-24T07:14:05.602Z,3.50
2018-01-24T07:15:05.589Z,3.60
2018-01-24T07:16:05.568Z,3.60
2018-01-24T07:17:05.549Z,3.40
2018-01-24T07:18:05.533Z,3.40
2018-01-24T07:19:05.522Z,3.50
2018-01-24T07:20:05.503Z,3.70
2018-01-24T07:21:05.480Z,3.00
2018-01-24T07:22:05.467Z,3.20
2018-01-24T07:23:05.446Z,3.20
2018-01-24T07:24:05.429Z,3.30
2018-01-24T07:25:05.409Z,3.40
2018-01-24T07:26:05.398Z,2.90
2018-01-24T07:27:05.374Z,3.10
2018-01-24T07:28:05.368Z,2.40
2018-01-24T07:29:05.452Z,3.20
2018-01-24T07:30:05.325Z,2.80
2018-01-24T07:31:05.304Z,2.90
2018-01-24T07:32:05.286Z,3.20
2018-01-24T07:33:05.269Z,2.90
2018-01-24T07:34:05.254Z,2.90
2018-01-24T07:35:05.235Z,2.90
2018-01-24T07:36:05.217Z,2.70
2018-01-24T07:37:05.198Z,2.70
2018-01-24T07:38:05.188Z,3.50
2018-01-24T07:39:05.164Z,3.00
2018-01-24T07:40:05.145Z,3.20
2018-01-24T07:41:05.127Z,3.00
2018-01-24T07:42:05.109Z,2.60
2018-01-24T07:43:05.098Z,2.80
2018-01-24T07:44:05.076Z,2.80
2018-01-24T07:45:05.059Z,3.00
2018-01-24T07:46:05.042Z,2.80
2018-01-24T07:47:05.026Z,2.80
2018-01-24T07:48:05.005Z,2.50
2018-01-24T07:49:04.989Z,2.60
2018-01-24T07:50:04.970Z,2.90
2018-01-24T07:51:04.962Z,2.90
2018-01-24T07:52:04.935Z,2.70
2018-01-24T07:53:04.918Z,3.00
2018-01-24T07:54:04.905Z,2.60
2018-01-24T07:55:04.888Z,2.90
2018-01-24T07:56:04.864Z,2.60
2018-01-24T07:57:04.856Z,2.90
2018-01-24T07:58:04.832Z,3.20
2018-01-24T07:59:04.811Z,3.00
2018-01-24T08:00:04.794Z,2.90
2018-01-24T08:01:04.777Z,3.40
2018-01-24T08:02:04.763Z,2.60
2018-01-24T08:03:04.750Z,2.80
2018-01-24T08:04:04.735Z,2.60
2018-01-24T08:05:04.708Z,3.20
2018-01-24T08:06:04.692Z,2.70
2018-01-24T08:07:04.676Z,2.70
2018-01-24T08:08:04.658Z,2.80
2018-01-24T08:09:04.640Z,2.80
2018-01-24T08:10:04.618Z,2.60
2018-01-24T08:11:04.658Z,3.00
2018-01-24T08:12:04.589Z,2.70
2018-01-24T08:13:04.570Z,2.50
2018-01-24T08:14:04.550Z,2.70
2018-01-24T08:15:04.532Z,2.40
2018-01-24T08:16:04.518Z,2.80
2018-01-24T08:17:04.494Z,2.50
2018-01-24T08:18:04.479Z,2.40
2018-01-24T08:19:04.462Z,2.50
2018-01-24T08:20:04.446Z,2.60
2018-01-24T08:21:04.428Z,2.80
2018-01-24T08:22:04.411Z,2.80
2018-01-24T08:23:04.395Z,2.60
2018-01-24T08:24:04.373Z,2.50
2018-01-24T08:25:04.359Z,2.40
2018-01-24T08:26:04.349Z,2.60
2018-01-24T08:27:04.330Z,2.30
2018-01-24T08:28:04.310Z,2.50
2018-01-24T08:29:04.297Z,2.30
2018-01-24T08:30:04.280Z,2.40
2018-01-24T08:31:04.259Z,2.70
2018-01-24T08:32:04.238Z,2.40
2018-01-24T08:33:04.224Z,2.50
2018-01-24T08:34:04.205Z,2.30
2018-01-24T08:35:04.187Z,2.60
2018-01-24T08:36:04.171Z,2.40
2018-01-24T08:37:04.154Z,2.30
2018-01-24T08:38:04.182Z,2.20
2018-01-24T08:39:04.131Z,2.30
2018-01-24T08:40:04.104Z,2.20
2018-01-24T08:41:04.090Z,2.10
2018-01-24T08:42:04.068Z,2.20
2018-01-24T08:43:04.053Z,2.10
2018-01-24T08:44:04.031Z,2.30
2018-01-24T08:45:04.015Z,2.10
2018-01-24T08:46:04.002Z,2.20
2018-01-24T08:47:03.981Z,2.10
2018-01-24T08:48:03.976Z,2.10
2018-01-24T08:49:03.949Z,2.10
2018-01-24T08:50:03.928Z,2.00
2018-01-24T08:51:03.911Z,2.00
2018-01-24T08:52:03.904Z,2.00
2018-01-24T08:53:03.876Z,2.10
2018-01-24T08:54:03.861Z,1.80
2018-01-24T08:55:03.847Z,1.90
2018-01-24T08:56:03.828Z,2.00
2018-01-24T08:57:03.812Z,1.90
2018-01-24T08:58:03.789Z,1.60
2018-01-24T08:59:03.778Z,1.70
2018-01-24T09:00:03.755Z,1.60
2018-01-24T09:01:03.741Z,1.80
2018-01-24T09:02:03.727Z,1.70
2018-01-24T09:03:03.708Z,1.80
2018-01-24T09:04:03.699Z,1.60
2018-01-24T09:05:03.673Z,1.70
2018-01-24T09:06:03.659Z,1.80
2018-01-24T09:07:03.641Z,1.90
2018-01-24T09:08:03.620Z,1.50
2018-01-24T09:09:03.604Z,1.80
2018-01-24T09:10:03.589Z,1.70
2018-01-24T09:11:03.569Z,1.50
2018-01-24T09:12:03.560Z,1.50
2018-01-24T09:13:03.542Z,2.00
2018-01-24T09:14:03.525Z,1.50
2018-01-24T09:15:03.508Z,1.70
2018-01-24T09:16:03.489Z,1.50
2018-01-24T09:17:03.473Z,1.70
2018-01-24T09:18:03.456Z,1.80
2018-01-24T09:19:03.439Z,1.40
2018-01-24T09:20:03.427Z,1.60
2018-01-24T09:21:03.415Z,1.90
2018-01-24T09:22:03.391Z,1.70
2018-01-24T09:23:03.371Z,1.80
2018-01-24T09:24:03.360Z,1.70
2018-01-24T09:25:03.341Z,1.60
2018-01-24T09:26:03.323Z,1.90
2018-01-24T09:27:03.309Z,2.00
2018-01-24T09:28:03.293Z,2.40
2018-01-24T09:29:03.274Z,2.00
2018-01-24T09:30:03.298Z,1.50
2018-01-24T09:31:03.298Z,1.50
2018-01-24T09:32:03.225Z,1.60
2018-01-24T09:33:03.200Z,2.00
2018-01-24T09:34:03.340Z,1.80
2018-01-24T09:35:03.169Z,2.20
2018-01-24T09:36:03.159Z,1.90
2018-01-24T09:37:03.135Z,1.70
2018-01-24T09:38:03.195Z,1.50
2018-01-24T09:39:03.106Z,1.80
2018-01-24T09:40:03.088Z,1.80
2018-01-24T09:41:03.072Z,1.80
2018-01-24T09:42:03.134Z,1.80
2018-01-24T09:43:03.038Z,1.80
2018-01-24T09:44:03.050Z,1.90
2018-01-24T09:45:03.006Z,2.30
2018-01-24T09:46:03.071Z,1.60
2018-01-24T09:47:02.976Z,1.50
2018-01-24T09:48:03.044Z,2.00
2018-01-24T09:49:02.944Z,1.80
2018-01-24T09:50:03.063Z,1.50
2018-01-24T09:51:02.909Z,2.00
2018-01-24T09:52:02.969Z,1.70
2018-01-24T09:53:02.876Z,1.80
2018-01-24T09:54:02.934Z,1.40
2018-01-24T09:55:02.838Z,2.00
2018-01-24T09:56:02.974Z,1.60
2018-01-24T09:57:02.807Z,1.70
2018-01-24T09:58:02.810Z,1.80
2018-01-24T09:59:02.777Z,1.50
2018-01-24T10:00:02.819Z,1.70
2018-01-24T10:01:02.739Z,1.90
2018-01-24T10:02:02.725Z,1.40
2018-01-24T10:03:02.721Z,1.50
2018-01-24T10:04:02.705Z,1.60
2018-01-24T10:05:02.677Z,1.70
2018-01-24T10:06:02.660Z,1.80
2018-01-24T10:07:02.640Z,1.60
2018-01-24T10:08:02.623Z,1.60
2018-01-24T10:09:02.610Z,1.40
2018-01-24T10:10:02.600Z,1.50
2018-01-24T10:11:02.578Z,1.40
2018-01-24T10:12:02.559Z,1.80
2018-01-24T10:13:02.542Z,1.90
2018-01-24T10:14:02.528Z,1.90
2018-01-24T10:15:02.513Z,1.60
2018-01-24T10:16:02.503Z,1.60
2018-01-24T10:17:02.476Z,1.70
2018-01-24T10:18:02.461Z,1.40
2018-01-24T10:19:02.443Z,2.00
2018-01-24T10:20:02.428Z,1.80
2018-01-24T10:21:02.412Z,1.60
2018-01-24T10:22:02.403Z,1.80
2018-01-24T10:23:02.379Z,1.70
2018-01-24T10:24:02.371Z,1.90
2018-01-24T10:25:02.384Z,1.60
2018-01-24T10:26:02.329Z,1.80
2018-01-24T10:27:02.322Z,2.20
2018-01-24T10:28:02.297Z,2.30
2018-01-24T10:29:02.279Z,1.70
2018-01-24T10:30:02.267Z,1.60
2018-01-24T10:31:02.253Z,1.60
2018-01-24T10:32:02.234Z,2.20
2018-01-24T10:33:02.222Z,1.70
2018-01-24T10:34:02.203Z,1.50
2018-01-24T10:35:02.186Z,1.40
2018-01-24T10:36:02.171Z,1.60
2018-01-24T10:37:02.148Z,1.80
2018-01-24T10:38:02.142Z,1.90
2018-01-24T10:39:02.121Z,1.60
2018-01-24T10:40:02.103Z,1.70
2018-01-24T10:41:02.082Z,2.00
2018-01-24T10:42:02.071Z,1.90
2018-01-24T10:43:02.059Z,1.60
2018-01-24T10:44:02.039Z,1.70
2018-01-24T10:45:02.025Z,1.60
2018-01-24T10:46:02.015Z,2.00
2018-01-24T10:47:01.990Z,1.80
2018-01-24T10:48:01.972Z,2.10
2018-01-24T10:49:01.961Z,1.80
2018-01-24T10:50:01.940Z,1.90
2018-01-24T10:51:01.931Z,1.60
2018-01-24T10:52:01.908Z,1.90
2018-01-24T10:53:01.901Z,1.80
2018-01-24T10:54:01.932Z,1.70
2018-01-24T10:55:01.864Z,2.10
2018-01-24T10:56:01.849Z,1.90
2018-01-24T10:57:01.831Z,1.90
2018-01-24T10:58:01.824Z,1.40
2018-01-24T10:59:01.801Z,1.40
2018-01-24T11:00:01.794Z,1.70
2018-01-24T11:01:01.771Z,1.60
2018-01-24T11:02:01.762Z,1.70
2018-01-24T11:03:01.742Z,1.60
2018-01-24T11:04:01.724Z,1.60
2018-01-24T11:05:01.709Z,1.90
2018-01-24T11:06:01.699Z,1.60
2018-01-24T11:07:01.680Z,1.70
2018-01-24T11:08:01.665Z,1.60
2018-01-24T11:09:01.649Z,1.40
2018-01-24T11:10:01.645Z,1.50
2018-01-24T11:11:01.620Z,1.60
2018-01-24T11:12:01.611Z,3.50
2018-01-24T11:13:01.590Z,3.50
2018-01-24T11:14:01.579Z,3.40
2018-01-24T11:15:01.561Z,4.80
2018-01-24T11:16:01.549Z,13.90
2018-01-24T11:17:01.530Z,8.70
2018-01-24T11:18:01.518Z,7.40
2018-01-24T11:19:01.500Z,3.90
2018-01-24T11:20:01.497Z,4.40
2018-01-24T11:21:01.480Z,6.60
2018-01-24T11:22:01.458Z,3.90
2018-01-24T11:23:01.450Z,9.00
2018-01-24T11:24:01.427Z,7.90
2018-01-24T11:25:01.420Z,5.90
2018-01-24T11:26:01.404Z,3.80
2018-01-24T11:27:01.386Z,3.00
2018-01-24T11:28:01.375Z,2.70
2018-01-24T11:29:01.364Z,3.80
2018-01-24T11:30:01.344Z,2.40
2018-01-24T11:31:01.330Z,2.70
2018-01-24T11:32:01.328Z,2.20
2018-01-24T11:33:01.300Z,1.70
2018-01-24T11:34:01.288Z,1.50
2018-01-24T11:35:01.282Z,1.70
2018-01-24T11:36:01.259Z,1.30
2018-01-24T11:37:01.246Z,1.50
2018-01-24T11:38:01.231Z,1.60
2018-01-24T11:39:01.217Z,1.40
2018-01-24T11:40:01.209Z,1.40
2018-01-24T11:41:01.194Z,1.50
2018-01-24T11:42:01.173Z,1.80
2018-01-24T11:43:01.160Z,1.90
2018-01-24T11:44:01.146Z,1.40
2018-01-24T11:45:01.132Z,1.50
2018-01-24T11:46:01.124Z,1.30
2018-01-24T11:47:01.105Z,3.30
2018-01-24T11:48:01.089Z,4.60
2018-01-24T11:49:01.073Z,6.80
2018-01-24T11:50:01.060Z,4.80
2018-01-24T11:51:01.049Z,1.80
2018-01-24T11:52:01.041Z,2.10
2018-01-24T11:53:01.028Z,2.80
2018-01-24T11:54:01.002Z,2.40
2018-01-24T11:55:01.013Z,1.90
2018-01-24T11:56:00.983Z,1.80
2018-01-24T11:57:00.961Z,2.00
2018-01-24T11:58:00.946Z,2.00
2018-01-24T11:59:00.933Z,1.90
2018-01-24T12:00:00.920Z,2.00
2018-01-24T12:01:00.901Z,1.80
2018-01-24T12:02:00.890Z,1.60
2018-01-24T12:03:00.876Z,1.80
2018-01-24T12:04:00.864Z,1.80
2018-01-24T12:05:00.840Z,1.60
2018-01-24T12:06:00.831Z,1.70
2018-01-24T12:07:00.814Z,1.60
2018-01-24T12:08:00.795Z,1.70
2018-01-24T12:09:00.780Z,1.50
2018-01-24T12:10:00.769Z,1.60
2018-01-24T12:11:00.751Z,1.70
2018-01-24T12:12:00.739Z,1.60
2018-01-24T12:13:00.729Z,1.50
2018-01-24T12:14:00.707Z,1.70
2018-01-24T12:15:00.696Z,1.70
2018-01-24T12:16:00.676Z,1.90
2018-01-24T12:17:00.671Z,1.90
2018-01-24T12:18:00.651Z,1.90
2018-01-24T12:19:00.640Z,1.80
2018-01-24T12:20:00.620Z,2.00
2018-01-24T12:21:00.613Z,1.90
2018-01-24T12:22:00.584Z,1.80
2018-01-24T12:23:00.574Z,1.90
2018-01-24T12:24:00.555Z,2.00
2018-01-24T12:25:00.541Z,1.90
2018-01-24T12:26:00.524Z,2.30
2018-01-24T12:27:00.510Z,1.90
2018-01-24T12:28:00.499Z,2.10
2018-01-24T12:29:00.480Z,1.90
2018-01-24T12:30:00.465Z,1.90
2018-01-24T12:31:00.450Z,2.10
2018-01-24T12:32:00.440Z,2.00
2018-01-24T12:33:00.419Z,1.90
2018-01-24T12:34:00.406Z,2.10
2018-01-24T12:35:00.389Z,1.80
2018-01-24T12:36:00.380Z,2.10
2018-01-24T12:37:00.361Z,1.90
2018-01-24T12:38:00.341Z,2.30
2018-01-24T12:39:00.324Z,2.00
2018-01-24T12:40:00.321Z,1.80
2018-01-24T12:41:00.354Z,2.00
2018-01-24T12:42:00.281Z,2.00
2018-01-24T12:43:00.267Z,2.10
2018-01-24T12:44:00.249Z,2.20
2018-01-24T12:45:00.283Z,2.00
2018-01-24T12:46:00.220Z,2.10
2018-01-24T12:47:00.204Z,1.70
2018-01-24T12:48:00.188Z,2.00
2018-01-24T12:49:00.173Z,1.80
2018-01-24T12:50:00.158Z,1.70
2018-01-24T12:51:00.144Z,1.70
2018-01-24T12:52:00.160Z,1.70
2018-01-24T12:53:00.113Z,1.60
2018-01-24T12:54:00.096Z,1.80
2018-01-24T12:55:00.090Z,1.50
2018-01-24T12:56:00.070Z,1.80
2018-01-24T12:57:00.052Z,1.60
2018-01-24T12:58:00.043Z,1.90
2018-01-24T12:59:00.022Z,1.80
2018-01-24T13:00:00.016Z,1.90
2018-01-24T13:00:59.987Z,1.90
2018-01-24T13:01:59.973Z,1.80
2018-01-24T13:02:59.955Z,1.70
2018-01-24T13:03:59.940Z,1.80
2018-01-24T13:04:59.924Z,1.60
2018-01-24T13:05:59.916Z,1.50